sensor_id;sensor_type;location;lat;lon;timestamp;temperature;humidity
5901;DHT22;2976;49.764;9.796;2024-03-02T00:00:48;5.10;99.90
5901;DHT22;2976;49.764;9.796;2024-03-02T00:03:14;5.10;99.90
5901;DHT22;2976;49.764;9.796;2024-03-02T00:05:39;5.00;99.90
5901;DHT22;2976;49.764;9.796;2024-03-02T00:08:06;5.00;99.90
5901;DHT22;2976;49.764;9.796;2024-03-02T00:10:39;4.90;99.90
5901;DHT22;2976;49.764;9.796;2024-03-02T00:13:07;4.80;99.90
5901;DHT22;2976;49.764;9.796;2024-03-02T00:15:38;4.70;99.90
5901;DHT22;2976;49.764;9.796;2024-03-02T00:18:06;4.60;99.90
5901;DHT22;2976;49.764;9.796;2024-03-02T00:20:31;4.50;99.90
5901;DHT22;2976;49.764;9.796;2024-03-02T00:23:07;4.50;99.90
5901;DHT22;2976;49.764;9.796;2024-03-02T00:28:24;4.40;99.90
5901;DHT22;2976;49.764;9.796;2024-03-02T00:33:31;4.30;99.90
5901;DHT22;2976;49.764;9.796;2024-03-02T00:35:57;4.30;99.90
5901;DHT22;2976;49.764;9.796;2024-03-02T00:38:23;4.30;99.90
5901;DHT22;2976;49.764;9.796;2024-03-02T00:40:49;4.40;99.90
5901;DHT22;2976;49.764;9.796;2024-03-02T00:45:53;4.50;99.90
5901;DHT22;2976;49.764;9.796;2024-03-02T00:48:18;4.60;99.90
5901;DHT22;2976;49.764;9.796;2024-03-02T00:50:44;4.70;99.90
5901;DHT22;2976;49.764;9.796;2024-03-02T00:53:11;4.80;99.90
5901;DHT22;2976;49.764;9.796;2024-03-02T00:55:37;4.80;99.90
5901;DHT22;2976;49.764;9.796;2024-03-02T00:58:03;4.90;99.90
5901;DHT22;2976;49.764;9.796;2024-03-02T01:00:29;4.90;99.90
5901;DHT22;2976;49.764;9.796;2024-03-02T01:02:54;5.00;99.90
5901;DHT22;2976;49.764;9.796;2024-03-02T01:05:20;5.00;99.90
5901;DHT22;2976;49.764;9.796;2024-03-02T01:07:45;5.10;99.90
5901;DHT22;2976;49.764;9.796;2024-03-02T01:10:11;5.10;99.90
5901;DHT22;2976;49.764;9.796;2024-03-02T01:12:37;5.10;99.90
5901;DHT22;2976;49.764;9.796;2024-03-02T01:15:02;5.10;99.90
5901;DHT22;2976;49.764;9.796;2024-03-02T01:17:31;5.10;99.90
5901;DHT22;2976;49.764;9.796;2024-03-02T01:19:56;5.00;99.90
5901;DHT22;2976;49.764;9.796;2024-03-02T01:22:23;5.00;99.90
5901;DHT22;2976;49.764;9.796;2024-03-02T01:24:51;4.90;99.90
5901;DHT22;2976;49.764;9.796;2024-03-02T01:27:17;4.90;99.90
5901;DHT22;2976;49.764;9.796;2024-03-02T01:29:42;4.80;99.90
5901;DHT22;2976;49.764;9.796;2024-03-02T01:32:08;4.90;99.90
5901;DHT22;2976;49.764;9.796;2024-03-02T01:34:33;4.90;99.90
5901;DHT22;2976;49.764;9.796;2024-03-02T01:36:59;5.00;99.90
5901;DHT22;2976;49.764;9.796;2024-03-02T01:39:24;5.00;99.90
5901;DHT22;2976;49.764;9.796;2024-03-02T01:41:50;5.10;99.90
5901;DHT22;2976;49.764;9.796;2024-03-02T01:44:15;5.20;99.90
5901;DHT22;2976;49.764;9.796;2024-03-02T01:46:41;5.20;99.90
5901;DHT22;2976;49.764;9.796;2024-03-02T01:49:07;5.20;99.90
5901;DHT22;2976;49.764;9.796;2024-03-02T01:51:32;5.20;99.90
5901;DHT22;2976;49.764;9.796;2024-03-02T01:53:58;5.20;99.90
5901;DHT22;2976;49.764;9.796;2024-03-02T01:56:24;5.30;99.90
5901;DHT22;2976;49.764;9.796;2024-03-02T01:58:49;5.30;99.90
5901;DHT22;2976;49.764;9.796;2024-03-02T02:01:15;5.30;99.90
5901;DHT22;2976;49.764;9.796;2024-03-02T02:03:43;5.30;99.90
5901;DHT22;2976;49.764;9.796;2024-03-02T02:06:09;5.30;99.90
5901;DHT22;2976;49.764;9.796;2024-03-02T02:08:37;5.30;99.90
5901;DHT22;2976;49.764;9.796;2024-03-02T02:11:02;5.20;99.90
5901;DHT22;2976;49.764;9.796;2024-03-02T02:13:28;5.10;99.90
5901;DHT22;2976;49.764;9.796;2024-03-02T02:15:53;5.00;99.90
5901;DHT22;2976;49.764;9.796;2024-03-02T02:18:19;4.90;99.90
5901;DHT22;2976;49.764;9.796;2024-03-02T02:20:44;4.90;99.90
5901;DHT22;2976;49.764;9.796;2024-03-02T02:23:10;4.80;99.90
5901;DHT22;2976;49.764;9.796;2024-03-02T02:25:36;4.80;99.90
5901;DHT22;2976;49.764;9.796;2024-03-02T02:28:02;4.80;99.90
5901;DHT22;2976;49.764;9.796;2024-03-02T02:30:30;4.80;99.90
5901;DHT22;2976;49.764;9.796;2024-03-02T02:32:57;4.80;99.90
5901;DHT22;2976;49.764;9.796;2024-03-02T02:35:23;4.80;99.90
5901;DHT22;2976;49.764;9.796;2024-03-02T02:37:53;4.70;99.90
5901;DHT22;2976;49.764;9.796;2024-03-02T02:40:19;4.50;99.90
5901;DHT22;2976;49.764;9.796;2024-03-02T02:42:44;4.30;99.90
5901;DHT22;2976;49.764;9.796;2024-03-02T02:45:15;4.20;99.90
5901;DHT22;2976;49.764;9.796;2024-03-02T02:47:42;4.20;99.90
5901;DHT22;2976;49.764;9.796;2024-03-02T02:50:08;4.20;99.90
5901;DHT22;2976;49.764;9.796;2024-03-02T02:52:34;4.20;99.90
5901;DHT22;2976;49.764;9.796;2024-03-02T02:55:03;4.20;99.90
5901;DHT22;2976;49.764;9.796;2024-03-02T02:57:29;4.20;99.90
5901;DHT22;2976;49.764;9.796;2024-03-02T02:59:56;4.30;99.90
5901;DHT22;2976;49.764;9.796;2024-03-02T03:02:22;4.30;99.90
5901;DHT22;2976;49.764;9.796;2024-03-02T03:04:48;4.20;99.90
5901;DHT22;2976;49.764;9.796;2024-03-02T03:07:13;4.20;99.90
5901;DHT22;2976;49.764;9.796;2024-03-02T03:09:39;4.10;99.90
5901;DHT22;2976;49.764;9.796;2024-03-02T03:12:04;4.10;99.90
5901;DHT22;2976;49.764;9.796;2024-03-02T03:14:30;4.10;99.90
5901;DHT22;2976;49.764;9.796;2024-03-02T03:16:55;4.10;99.90
5901;DHT22;2976;49.764;9.796;2024-03-02T03:19:21;4.10;99.90
5901;DHT22;2976;49.764;9.796;2024-03-02T03:21:46;4.10;99.90
5901;DHT22;2976;49.764;9.796;2024-03-02T03:24:12;4.10;99.90
5901;DHT22;2976;49.764;9.796;2024-03-02T03:26:38;4.10;99.90
5901;DHT22;2976;49.764;9.796;2024-03-02T03:29:03;4.10;99.90
5901;DHT22;2976;49.764;9.796;2024-03-02T03:31:29;4.10;99.90
5901;DHT22;2976;49.764;9.796;2024-03-02T03:33:55;4.20;99.90
5901;DHT22;2976;49.764;9.796;2024-03-02T03:36:20;4.30;99.90
5901;DHT22;2976;49.764;9.796;2024-03-02T03:38:46;4.20;99.90
5901;DHT22;2976;49.764;9.796;2024-03-02T03:41:11;4.20;99.90
5901;DHT22;2976;49.764;9.796;2024-03-02T03:43:37;4.20;99.90
5901;DHT22;2976;49.764;9.796;2024-03-02T03:46:03;4.20;99.90
5901;DHT22;2976;49.764;9.796;2024-03-02T03:48:28;4.20;99.90
5901;DHT22;2976;49.764;9.796;2024-03-02T03:50:56;4.20;99.90
5901;DHT22;2976;49.764;9.796;2024-03-02T03:53:22;4.20;99.90
5901;DHT22;2976;49.764;9.796;2024-03-02T03:55:48;4.20;99.90
5901;DHT22;2976;49.764;9.796;2024-03-02T03:58:15;4.10;99.90
5901;DHT22;2976;49.764;9.796;2024-03-02T04:00:42;4.10;99.90
5901;DHT22;2976;49.764;9.796;2024-03-02T04:03:07;4.00;99.90
5901;DHT22;2976;49.764;9.796;2024-03-02T04:05:33;3.90;99.90
5901;DHT22;2976;49.764;9.796;2024-03-02T04:08:01;3.90;99.90
5901;DHT22;2976;49.764;9.796;2024-03-02T04:10:26;3.80;99.90
5901;DHT22;2976;49.764;9.796;2024-03-02T04:12:52;3.80;99.90
5901;DHT22;2976;49.764;9.796;2024-03-02T04:15:17;3.80;99.90
5901;DHT22;2976;49.764;9.796;2024-03-02T04:17:44;3.80;99.90
5901;DHT22;2976;49.764;9.796;2024-03-02T04:20:12;3.80;99.90
5901;DHT22;2976;49.764;9.796;2024-03-02T04:22:38;3.80;99.90
5901;DHT22;2976;49.764;9.796;2024-03-02T04:25:04;3.90;99.90
5901;DHT22;2976;49.764;9.796;2024-03-02T04:27:32;3.90;99.90
5901;DHT22;2976;49.764;9.796;2024-03-02T04:29:58;3.90;99.90
5901;DHT22;2976;49.764;9.796;2024-03-02T04:32:26;3.90;99.90
5901;DHT22;2976;49.764;9.796;2024-03-02T04:34:51;3.90;99.90
5901;DHT22;2976;49.764;9.796;2024-03-02T04:37:17;3.90;99.90
5901;DHT22;2976;49.764;9.796;2024-03-02T04:39:43;3.90;99.90
5901;DHT22;2976;49.764;9.796;2024-03-02T04:42:08;3.90;99.90
5901;DHT22;2976;49.764;9.796;2024-03-02T04:44:34;3.80;99.90
5901;DHT22;2976;49.764;9.796;2024-03-02T04:46:59;3.70;99.90
5901;DHT22;2976;49.764;9.796;2024-03-02T04:49:25;3.70;99.90
5901;DHT22;2976;49.764;9.796;2024-03-02T04:51:50;3.70;99.90
5901;DHT22;2976;49.764;9.796;2024-03-02T04:54:16;3.70;99.90
5901;DHT22;2976;49.764;9.796;2024-03-02T04:56:42;3.70;99.90
5901;DHT22;2976;49.764;9.796;2024-03-02T04:59:15;3.70;99.90
5901;DHT22;2976;49.764;9.796;2024-03-02T05:01:41;3.60;99.90
5901;DHT22;2976;49.764;9.796;2024-03-02T05:04:07;3.60;99.90
5901;DHT22;2976;49.764;9.796;2024-03-02T05:06:32;3.60;99.90
5901;DHT22;2976;49.764;9.796;2024-03-02T05:08:58;3.60;99.90
5901;DHT22;2976;49.764;9.796;2024-03-02T05:11:24;3.70;99.90
5901;DHT22;2976;49.764;9.796;2024-03-02T05:14:05;3.70;99.90
5901;DHT22;2976;49.764;9.796;2024-03-02T05:16:35;3.60;99.90
5901;DHT22;2976;49.764;9.796;2024-03-02T05:19:02;3.60;99.90
5901;DHT22;2976;49.764;9.796;2024-03-02T05:21:27;3.70;99.90
5901;DHT22;2976;49.764;9.796;2024-03-02T05:23:53;3.70;99.90
5901;DHT22;2976;49.764;9.796;2024-03-02T05:26:18;3.70;99.90
5901;DHT22;2976;49.764;9.796;2024-03-02T05:28:44;3.60;99.90
5901;DHT22;2976;49.764;9.796;2024-03-02T05:31:15;3.60;99.90
5901;DHT22;2976;49.764;9.796;2024-03-02T05:33:42;3.60;99.90
5901;DHT22;2976;49.764;9.796;2024-03-02T05:36:08;3.60;99.90
5901;DHT22;2976;49.764;9.796;2024-03-02T05:38:37;3.60;99.90
5901;DHT22;2976;49.764;9.796;2024-03-02T05:41:02;3.60;99.90
5901;DHT22;2976;49.764;9.796;2024-03-02T05:43:28;3.70;99.90
5901;DHT22;2976;49.764;9.796;2024-03-02T05:45:54;3.70;99.90
5901;DHT22;2976;49.764;9.796;2024-03-02T05:48:19;3.70;99.90
5901;DHT22;2976;49.764;9.796;2024-03-02T05:50:45;3.70;99.90
5901;DHT22;2976;49.764;9.796;2024-03-02T05:53:11;3.70;99.90
5901;DHT22;2976;49.764;9.796;2024-03-02T05:55:36;3.70;99.90
5901;DHT22;2976;49.764;9.796;2024-03-02T05:58:02;3.70;99.90
5901;DHT22;2976;49.764;9.796;2024-03-02T06:00:46;3.60;99.90
5901;DHT22;2976;49.764;9.796;2024-03-02T06:03:11;3.60;99.90
5901;DHT22;2976;49.764;9.796;2024-03-02T06:05:40;3.60;99.90
5901;DHT22;2976;49.764;9.796;2024-03-02T06:08:06;3.70;99.90
5901;DHT22;2976;49.764;9.796;2024-03-02T06:10:32;3.80;99.90
5901;DHT22;2976;49.764;9.796;2024-03-02T06:12:58;3.80;99.90
5901;DHT22;2976;49.764;9.796;2024-03-02T06:15:24;3.90;99.90
5901;DHT22;2976;49.764;9.796;2024-03-02T06:17:50;3.90;99.90
5901;DHT22;2976;49.764;9.796;2024-03-02T06:20:15;3.90;99.90
5901;DHT22;2976;49.764;9.796;2024-03-02T06:22:41;3.90;99.90
5901;DHT22;2976;49.764;9.796;2024-03-02T06:25:07;3.90;99.90
5901;DHT22;2976;49.764;9.796;2024-03-02T06:27:35;3.80;99.90
5901;DHT22;2976;49.764;9.796;2024-03-02T06:30:01;3.70;99.90
5901;DHT22;2976;49.764;9.796;2024-03-02T06:32:26;3.40;99.90
5901;DHT22;2976;49.764;9.796;2024-03-02T06:34:52;3.30;99.90
5901;DHT22;2976;49.764;9.796;2024-03-02T06:37:17;3.30;99.90
5901;DHT22;2976;49.764;9.796;2024-03-02T06:39:43;3.30;99.90
5901;DHT22;2976;49.764;9.796;2024-03-02T06:42:09;3.40;99.90
5901;DHT22;2976;49.764;9.796;2024-03-02T06:44:34;3.50;99.90
5901;DHT22;2976;49.764;9.796;2024-03-02T06:47:00;3.80;99.90
5901;DHT22;2976;49.764;9.796;2024-03-02T06:49:25;4.00;99.90
5901;DHT22;2976;49.764;9.796;2024-03-02T06:51:51;4.20;99.90
5901;DHT22;2976;49.764;9.796;2024-03-02T06:54:17;4.30;99.90
5901;DHT22;2976;49.764;9.796;2024-03-02T06:56:42;4.50;99.90
5901;DHT22;2976;49.764;9.796;2024-03-02T06:59:08;4.60;99.90
5901;DHT22;2976;49.764;9.796;2024-03-02T07:01:33;4.90;99.90
5901;DHT22;2976;49.764;9.796;2024-03-02T07:03:59;5.00;99.90
5901;DHT22;2976;49.764;9.796;2024-03-02T07:06:25;5.00;99.90
5901;DHT22;2976;49.764;9.796;2024-03-02T07:08:51;5.10;99.90
5901;DHT22;2976;49.764;9.796;2024-03-02T07:11:16;5.30;99.90
5901;DHT22;2976;49.764;9.796;2024-03-02T07:13:42;5.30;99.90
5901;DHT22;2976;49.764;9.796;2024-03-02T07:16:07;5.30;99.90
5901;DHT22;2976;49.764;9.796;2024-03-02T07:18:36;5.40;99.90
5901;DHT22;2976;49.764;9.796;2024-03-02T07:21:10;5.60;99.90
5901;DHT22;2976;49.764;9.796;2024-03-02T07:23:36;5.80;99.90
5901;DHT22;2976;49.764;9.796;2024-03-02T07:26:01;5.90;99.90
5901;DHT22;2976;49.764;9.796;2024-03-02T07:28:27;5.80;99.90
5901;DHT22;2976;49.764;9.796;2024-03-02T07:31:03;6.00;99.90
5901;DHT22;2976;49.764;9.796;2024-03-02T07:33:30;6.20;99.90
5901;DHT22;2976;49.764;9.796;2024-03-02T07:35:56;6.40;99.90
5901;DHT22;2976;49.764;9.796;2024-03-02T07:38:22;6.60;99.90
5901;DHT22;2976;49.764;9.796;2024-03-02T07:40:48;6.80;99.90
5901;DHT22;2976;49.764;9.796;2024-03-02T07:43:17;6.90;99.90
5901;DHT22;2976;49.764;9.796;2024-03-02T07:45:44;6.60;99.90
5901;DHT22;2976;49.764;9.796;2024-03-02T07:48:10;6.70;99.90
5901;DHT22;2976;49.764;9.796;2024-03-02T07:50:36;6.70;99.90
5901;DHT22;2976;49.764;9.796;2024-03-02T07:53:03;6.80;99.90
5901;DHT22;2976;49.764;9.796;2024-03-02T07:55:29;7.00;99.90
5901;DHT22;2976;49.764;9.796;2024-03-02T07:57:55;7.10;99.90
5901;DHT22;2976;49.764;9.796;2024-03-02T08:00:22;7.40;99.90
5901;DHT22;2976;49.764;9.796;2024-03-02T08:02:48;7.40;99.90
5901;DHT22;2976;49.764;9.796;2024-03-02T08:05:14;7.60;99.90
5901;DHT22;2976;49.764;9.796;2024-03-02T08:07:40;7.60;99.90
5901;DHT22;2976;49.764;9.796;2024-03-02T08:10:06;7.70;99.90
5901;DHT22;2976;49.764;9.796;2024-03-02T08:12:32;7.90;99.90
5901;DHT22;2976;49.764;9.796;2024-03-02T08:14:58;8.00;67.20
5901;DHT22;2976;49.764;9.796;2024-03-02T08:17:23;8.10;30.70
5901;DHT22;2976;49.764;9.796;2024-03-02T08:19:49;8.10;17.80
5901;DHT22;2976;49.764;9.796;2024-03-02T08:22:15;8.30;13.90
5901;DHT22;2976;49.764;9.796;2024-03-02T08:24:41;8.40;12.50
5901;DHT22;2976;49.764;9.796;2024-03-02T08:27:06;8.60;1.00
5901;DHT22;2976;49.764;9.796;2024-03-02T08:29:32;8.60;1.00
5901;DHT22;2976;49.764;9.796;2024-03-02T08:31:57;8.70;1.00
5901;DHT22;2976;49.764;9.796;2024-03-02T08:34:23;8.90;1.00
5901;DHT22;2976;49.764;9.796;2024-03-02T08:36:51;9.00;1.00
5901;DHT22;2976;49.764;9.796;2024-03-02T08:39:17;9.20;1.00
5901;DHT22;2976;49.764;9.796;2024-03-02T08:41:44;9.10;1.00
5901;DHT22;2976;49.764;9.796;2024-03-02T08:44:10;9.20;1.00
5901;DHT22;2976;49.764;9.796;2024-03-02T08:46:36;9.20;1.00
5901;DHT22;2976;49.764;9.796;2024-03-02T08:49:02;9.30;1.00
5901;DHT22;2976;49.764;9.796;2024-03-02T08:51:28;9.40;1.00
5901;DHT22;2976;49.764;9.796;2024-03-02T08:53:54;9.40;1.00
5901;DHT22;2976;49.764;9.796;2024-03-02T08:56:22;9.50;99.90
5901;DHT22;2976;49.764;9.796;2024-03-02T08:58:49;9.60;99.90
5901;DHT22;2976;49.764;9.796;2024-03-02T09:01:17;9.70;99.90
5901;DHT22;2976;49.764;9.796;2024-03-02T09:03:43;9.70;99.90
5901;DHT22;2976;49.764;9.796;2024-03-02T09:06:13;9.70;99.90
5901;DHT22;2976;49.764;9.796;2024-03-02T09:08:39;9.70;99.90
5901;DHT22;2976;49.764;9.796;2024-03-02T09:11:08;9.80;99.90
5901;DHT22;2976;49.764;9.796;2024-03-02T09:13:34;9.80;99.90
5901;DHT22;2976;49.764;9.796;2024-03-02T09:15:59;9.90;99.90
5901;DHT22;2976;49.764;9.796;2024-03-02T09:18:25;9.90;99.90
5901;DHT22;2976;49.764;9.796;2024-03-02T09:20:51;9.80;99.90
5901;DHT22;2976;49.764;9.796;2024-03-02T09:23:16;9.80;99.90
5901;DHT22;2976;49.764;9.796;2024-03-02T09:25:42;9.80;96.00
5901;DHT22;2976;49.764;9.796;2024-03-02T09:28:07;9.80;99.90
5901;DHT22;2976;49.764;9.796;2024-03-02T09:30:33;9.80;99.90
5901;DHT22;2976;49.764;9.796;2024-03-02T09:32:58;9.90;99.90
5901;DHT22;2976;49.764;9.796;2024-03-02T09:35:24;9.90;99.90
5901;DHT22;2976;49.764;9.796;2024-03-02T09:37:50;10.10;99.90
5901;DHT22;2976;49.764;9.796;2024-03-02T09:40:16;10.40;99.90
5901;DHT22;2976;49.764;9.796;2024-03-02T09:42:45;10.60;1.00
5901;DHT22;2976;49.764;9.796;2024-03-02T09:45:11;10.80;1.00
5901;DHT22;2976;49.764;9.796;2024-03-02T09:47:36;11.20;1.00
5901;DHT22;2976;49.764;9.796;2024-03-02T09:50:02;11.60;99.90
5901;DHT22;2976;49.764;9.796;2024-03-02T09:52:29;11.90;1.00
5901;DHT22;2976;49.764;9.796;2024-03-02T09:54:56;12.10;1.00
5901;DHT22;2976;49.764;9.796;2024-03-02T09:57:21;12.10;99.90
5901;DHT22;2976;49.764;9.796;2024-03-02T09:59:47;12.20;99.90
5901;DHT22;2976;49.764;9.796;2024-03-02T10:02:13;12.20;1.00
5901;DHT22;2976;49.764;9.796;2024-03-02T10:04:38;12.30;99.90
5901;DHT22;2976;49.764;9.796;2024-03-02T10:07:17;12.30;29.80
5901;DHT22;2976;49.764;9.796;2024-03-02T10:09:45;12.50;99.90
5901;DHT22;2976;49.764;9.796;2024-03-02T10:12:17;12.40;33.30
5901;DHT22;2976;49.764;9.796;2024-03-02T10:14:46;12.50;99.90
5901;DHT22;2976;49.764;9.796;2024-03-02T10:17:14;12.70;99.90
5901;DHT22;2976;49.764;9.796;2024-03-02T10:19:41;12.80;99.90
5901;DHT22;2976;49.764;9.796;2024-03-02T10:22:08;12.90;99.90
5901;DHT22;2976;49.764;9.796;2024-03-02T10:24:41;13.00;99.90
5901;DHT22;2976;49.764;9.796;2024-03-02T10:27:22;13.10;99.90
5901;DHT22;2976;49.764;9.796;2024-03-02T10:29:48;13.10;23.90
5901;DHT22;2976;49.764;9.796;2024-03-02T10:32:15;13.00;1.00
5901;DHT22;2976;49.764;9.796;2024-03-02T10:34:47;12.80;1.00
5901;DHT22;2976;49.764;9.796;2024-03-02T10:37:16;12.80;1.00
5901;DHT22;2976;49.764;9.796;2024-03-02T10:39:43;12.70;99.90
5901;DHT22;2976;49.764;9.796;2024-03-02T10:42:08;12.60;50.70
5901;DHT22;2976;49.764;9.796;2024-03-02T10:44:34;12.50;1.00
5901;DHT22;2976;49.764;9.796;2024-03-02T10:47:01;12.50;99.90
5901;DHT22;2976;49.764;9.796;2024-03-02T10:49:30;12.50;1.00
5901;DHT22;2976;49.764;9.796;2024-03-02T10:52:00;12.50;1.00
5901;DHT22;2976;49.764;9.796;2024-03-02T10:54:29;12.60;99.90
5901;DHT22;2976;49.764;9.796;2024-03-02T10:57:01;12.90;1.00
5901;DHT22;2976;49.764;9.796;2024-03-02T10:59:32;13.40;99.90
5901;DHT22;2976;49.764;9.796;2024-03-02T11:02:03;13.80;99.90
5901;DHT22;2976;49.764;9.796;2024-03-02T11:04:30;14.20;99.90
5901;DHT22;2976;49.764;9.796;2024-03-02T11:07:14;14.40;99.90
5901;DHT22;2976;49.764;9.796;2024-03-02T11:09:48;14.70;1.00
5901;DHT22;2976;49.764;9.796;2024-03-02T11:12:29;14.90;4.20
5901;DHT22;2976;49.764;9.796;2024-03-02T11:14:55;14.90;1.00
5901;DHT22;2976;49.764;9.796;2024-03-02T11:17:21;14.80;1.00
5901;DHT22;2976;49.764;9.796;2024-03-02T11:19:48;15.00;1.00
5901;DHT22;2976;49.764;9.796;2024-03-02T11:22:15;14.90;1.00
5901;DHT22;2976;49.764;9.796;2024-03-02T11:24:51;15.10;1.00
5901;DHT22;2976;49.764;9.796;2024-03-02T11:33:08;15.40;99.90
5901;DHT22;2976;49.764;9.796;2024-03-02T11:35:35;14.90;99.90
5901;DHT22;2976;49.764;9.796;2024-03-02T11:38:05;14.90;1.00
5901;DHT22;2976;49.764;9.796;2024-03-02T11:40:31;15.10;1.00
5901;DHT22;2976;49.764;9.796;2024-03-02T11:42:59;15.30;99.90
5901;DHT22;2976;49.764;9.796;2024-03-02T11:45:26;15.30;99.90
5901;DHT22;2976;49.764;9.796;2024-03-02T11:47:54;15.30;99.90
5901;DHT22;2976;49.764;9.796;2024-03-02T11:52:58;15.10;99.90
5901;DHT22;2976;49.764;9.796;2024-03-02T11:55:25;15.10;99.90
5901;DHT22;2976;49.764;9.796;2024-03-02T11:57:52;15.10;99.90
5901;DHT22;2976;49.764;9.796;2024-03-02T12:00:19;14.90;99.90
5901;DHT22;2976;49.764;9.796;2024-03-02T12:02:46;14.90;99.90
5901;DHT22;2976;49.764;9.796;2024-03-02T12:05:17;14.60;99.90
5901;DHT22;2976;49.764;9.796;2024-03-02T12:07:43;14.40;99.90
5901;DHT22;2976;49.764;9.796;2024-03-02T12:10:08;14.50;99.90
5901;DHT22;2976;49.764;9.796;2024-03-02T12:12:34;14.60;99.90
5901;DHT22;2976;49.764;9.796;2024-03-02T12:15:00;14.50;99.90
5901;DHT22;2976;49.764;9.796;2024-03-02T12:17:26;14.30;99.90
5901;DHT22;2976;49.764;9.796;2024-03-02T12:19:55;14.30;99.90
5901;DHT22;2976;49.764;9.796;2024-03-02T12:22:21;14.30;99.90
5901;DHT22;2976;49.764;9.796;2024-03-02T12:24:47;14.50;99.90
5901;DHT22;2976;49.764;9.796;2024-03-02T12:27:15;14.60;99.90
5901;DHT22;2976;49.764;9.796;2024-03-02T12:29:41;14.60;99.90
5901;DHT22;2976;49.764;9.796;2024-03-02T12:32:08;14.40;99.90
5901;DHT22;2976;49.764;9.796;2024-03-02T12:34:33;14.50;99.90
5901;DHT22;2976;49.764;9.796;2024-03-02T12:36:59;14.40;99.90
5901;DHT22;2976;49.764;9.796;2024-03-02T12:39:25;14.40;99.90
5901;DHT22;2976;49.764;9.796;2024-03-02T12:41:51;14.50;99.90
5901;DHT22;2976;49.764;9.796;2024-03-02T12:44:17;14.40;99.90
5901;DHT22;2976;49.764;9.796;2024-03-02T12:46:43;14.30;99.90
5901;DHT22;2976;49.764;9.796;2024-03-02T12:49:11;14.30;99.90
5901;DHT22;2976;49.764;9.796;2024-03-02T12:51:40;14.30;99.90
5901;DHT22;2976;49.764;9.796;2024-03-02T12:54:10;14.30;99.90
5901;DHT22;2976;49.764;9.796;2024-03-02T12:56:40;14.30;99.90
5901;DHT22;2976;49.764;9.796;2024-03-02T12:59:17;14.10;99.90
5901;DHT22;2976;49.764;9.796;2024-03-02T13:04:22;13.90;99.90
5901;DHT22;2976;49.764;9.796;2024-03-02T13:06:48;14.00;99.90
5901;DHT22;2976;49.764;9.796;2024-03-02T13:09:14;13.90;99.90
5901;DHT22;2976;49.764;9.796;2024-03-02T13:11:41;13.90;99.90
5901;DHT22;2976;49.764;9.796;2024-03-02T13:14:07;13.80;1.00
5901;DHT22;2976;49.764;9.796;2024-03-02T13:16:38;13.80;1.00
5901;DHT22;2976;49.764;9.796;2024-03-02T13:19:10;13.80;99.90
5901;DHT22;2976;49.764;9.796;2024-03-02T13:21:39;13.80;99.90
5901;DHT22;2976;49.764;9.796;2024-03-02T13:24:05;13.90;99.90
5901;DHT22;2976;49.764;9.796;2024-03-02T13:26:31;13.80;99.90
5901;DHT22;2976;49.764;9.796;2024-03-02T13:28:57;13.90;99.90
5901;DHT22;2976;49.764;9.796;2024-03-02T13:31:22;13.90;99.90
5901;DHT22;2976;49.764;9.796;2024-03-02T13:33:48;13.90;99.90
5901;DHT22;2976;49.764;9.796;2024-03-02T13:36:14;13.90;99.90
5901;DHT22;2976;49.764;9.796;2024-03-02T13:38:39;14.00;99.90
5901;DHT22;2976;49.764;9.796;2024-03-02T13:41:05;13.90;99.90
5901;DHT22;2976;49.764;9.796;2024-03-02T13:43:31;14.00;99.90
5901;DHT22;2976;49.764;9.796;2024-03-02T13:45:58;14.00;99.90
5901;DHT22;2976;49.764;9.796;2024-03-02T13:48:24;13.90;99.90
5901;DHT22;2976;49.764;9.796;2024-03-02T13:50:51;13.90;99.90
5901;DHT22;2976;49.764;9.796;2024-03-02T13:53:18;13.90;99.90
5901;DHT22;2976;49.764;9.796;2024-03-02T13:55:44;13.80;99.90
5901;DHT22;2976;49.764;9.796;2024-03-02T13:58:10;13.90;99.90
5901;DHT22;2976;49.764;9.796;2024-03-02T14:00:37;13.90;99.90
5901;DHT22;2976;49.764;9.796;2024-03-02T14:03:03;13.80;99.90
5901;DHT22;2976;49.764;9.796;2024-03-02T14:05:29;13.90;99.90
5901;DHT22;2976;49.764;9.796;2024-03-02T14:07:54;13.80;99.90
5901;DHT22;2976;49.764;9.796;2024-03-02T14:10:20;13.90;99.90
5901;DHT22;2976;49.764;9.796;2024-03-02T14:12:50;13.90;99.90
5901;DHT22;2976;49.764;9.796;2024-03-02T14:15:16;13.90;99.90
5901;DHT22;2976;49.764;9.796;2024-03-02T14:17:44;13.90;99.90
5901;DHT22;2976;49.764;9.796;2024-03-02T14:20:10;13.90;99.90
5901;DHT22;2976;49.764;9.796;2024-03-02T14:22:37;13.90;99.90
5901;DHT22;2976;49.764;9.796;2024-03-02T14:25:03;13.90;99.90
5901;DHT22;2976;49.764;9.796;2024-03-02T14:27:29;13.80;99.90
5901;DHT22;2976;49.764;9.796;2024-03-02T14:29:55;13.80;99.90
5901;DHT22;2976;49.764;9.796;2024-03-02T14:32:21;13.90;99.90
5901;DHT22;2976;49.764;9.796;2024-03-02T14:34:46;13.90;99.90
5901;DHT22;2976;49.764;9.796;2024-03-02T14:37:13;13.80;99.90
5901;DHT22;2976;49.764;9.796;2024-03-02T14:39:47;13.80;99.90
5901;DHT22;2976;49.764;9.796;2024-03-02T14:42:14;13.70;99.90
5901;DHT22;2976;49.764;9.796;2024-03-02T14:44:40;13.70;99.90
5901;DHT22;2976;49.764;9.796;2024-03-02T14:47:06;13.80;99.90
5901;DHT22;2976;49.764;9.796;2024-03-02T14:49:33;13.90;99.90
5901;DHT22;2976;49.764;9.796;2024-03-02T14:52:01;14.00;99.90
5901;DHT22;2976;49.764;9.796;2024-03-02T14:54:26;14.10;99.90
5901;DHT22;2976;49.764;9.796;2024-03-02T14:56:52;14.20;99.90
5901;DHT22;2976;49.764;9.796;2024-03-02T14:59:17;14.10;99.90
5901;DHT22;2976;49.764;9.796;2024-03-02T15:01:44;14.10;99.90
5901;DHT22;2976;49.764;9.796;2024-03-02T15:04:11;14.10;99.90
5901;DHT22;2976;49.764;9.796;2024-03-02T15:06:37;14.20;99.90
5901;DHT22;2976;49.764;9.796;2024-03-02T15:09:06;14.20;99.90
5901;DHT22;2976;49.764;9.796;2024-03-02T15:14:10;14.00;1.00
5901;DHT22;2976;49.764;9.796;2024-03-02T15:16:35;14.00;1.00
5901;DHT22;2976;49.764;9.796;2024-03-02T15:19:01;14.00;1.00
5901;DHT22;2976;49.764;9.796;2024-03-02T15:21:27;14.00;1.00
5901;DHT22;2976;49.764;9.796;2024-03-02T15:23:55;13.90;1.00
5901;DHT22;2976;49.764;9.796;2024-03-02T15:26:20;13.90;1.00
5901;DHT22;2976;49.764;9.796;2024-03-02T15:28:46;13.70;1.00
5901;DHT22;2976;49.764;9.796;2024-03-02T15:31:12;13.70;1.00
5901;DHT22;2976;49.764;9.796;2024-03-02T15:33:37;13.60;1.00
5901;DHT22;2976;49.764;9.796;2024-03-02T15:36:03;13.60;1.00
5901;DHT22;2976;49.764;9.796;2024-03-02T15:38:30;13.50;1.00
5901;DHT22;2976;49.764;9.796;2024-03-02T15:40:55;13.40;1.00
5901;DHT22;2976;49.764;9.796;2024-03-02T15:43:21;13.30;1.00
5901;DHT22;2976;49.764;9.796;2024-03-02T15:45:47;13.30;1.00
5901;DHT22;2976;49.764;9.796;2024-03-02T15:48:12;13.20;1.00
5901;DHT22;2976;49.764;9.796;2024-03-02T15:50:38;13.10;1.00
5901;DHT22;2976;49.764;9.796;2024-03-02T15:53:03;13.00;1.00
5901;DHT22;2976;49.764;9.796;2024-03-02T15:55:32;13.00;13.10
5901;DHT22;2976;49.764;9.796;2024-03-02T15:58:00;13.00;99.90
5901;DHT22;2976;49.764;9.796;2024-03-02T16:00:25;12.90;99.90
5901;DHT22;2976;49.764;9.796;2024-03-02T16:02:51;12.90;99.90
5901;DHT22;2976;49.764;9.796;2024-03-02T16:05:17;12.80;1.00
5901;DHT22;2976;49.764;9.796;2024-03-02T16:07:43;12.80;99.90
5901;DHT22;2976;49.764;9.796;2024-03-02T16:10:09;12.80;99.90
5901;DHT22;2976;49.764;9.796;2024-03-02T16:12:34;12.70;99.90
5901;DHT22;2976;49.764;9.796;2024-03-02T16:15:00;12.70;99.90
5901;DHT22;2976;49.764;9.796;2024-03-02T16:17:25;12.70;1.00
5901;DHT22;2976;49.764;9.796;2024-03-02T16:19:51;12.60;1.00
5901;DHT22;2976;49.764;9.796;2024-03-02T16:22:17;12.60;92.00
5901;DHT22;2976;49.764;9.796;2024-03-02T16:24:42;12.50;18.80
5901;DHT22;2976;49.764;9.796;2024-03-02T16:27:08;12.50;99.90
5901;DHT22;2976;49.764;9.796;2024-03-02T16:29:34;12.40;1.00
5901;DHT22;2976;49.764;9.796;2024-03-02T16:32:00;12.40;1.00